createdAt,value
2018-08-16T00:01:44.364Z,98.85
2018-08-16T00:04:48.817Z,98.68
2018-08-16T00:07:53.406Z,99.00
2018-08-16T00:10:57.838Z,99.19
2018-08-16T00:14:02.414Z,98.93
2018-08-16T00:17:07.943Z,99.51
2018-08-16T00:20:13.381Z,99.95
2018-08-16T00:23:17.994Z,99.68
2018-08-16T00:26:22.792Z,100.00
2018-08-16T00:29:28.121Z,100.00
2018-08-16T00:32:32.675Z,100.00
2018-08-16T00:35:37.474Z,100.00
2018-08-16T00:38:42.215Z,100.00
2018-08-16T00:41:46.946Z,100.00
2018-08-16T00:44:51.406Z,100.00
2018-08-16T00:47:55.979Z,100.00
2018-08-16T00:51:00.482Z,100.00
2018-08-16T00:54:05.082Z,100.00
2018-08-16T00:57:09.530Z,100.00
2018-08-16T01:00:16.133Z,100.00
2018-08-16T01:03:20.681Z,100.00
2018-08-16T01:06:25.493Z,100.00
2018-08-16T01:09:30.152Z,100.00
2018-08-16T01:12:34.622Z,100.00
2018-08-16T01:15:40.790Z,100.00
2018-08-16T01:18:45.487Z,100.00
2018-08-16T01:21:49.977Z,100.00
2018-08-16T01:24:54.456Z,100.00
2018-08-16T01:27:58.911Z,100.00
2018-08-16T01:31:03.356Z,100.00
2018-08-16T01:34:08.127Z,100.00
2018-08-16T01:37:13.068Z,100.00
2018-08-16T01:40:17.465Z,100.00
2018-08-16T01:43:21.877Z,100.00
2018-08-16T01:46:27.169Z,100.00
2018-08-16T01:49:36.245Z,100.00
2018-08-16T01:52:40.665Z,100.00
2018-08-16T01:55:45.785Z,100.00
2018-08-16T01:58:50.397Z,100.00
2018-08-16T02:01:54.809Z,100.00
2018-08-16T02:04:59.265Z,100.00
2018-08-16T02:08:03.717Z,100.00
2018-08-16T02:11:08.291Z,100.00
2018-08-16T02:14:12.667Z,100.00
2018-08-16T02:17:17.062Z,100.00
2018-08-16T02:20:21.502Z,100.00
2018-08-16T02:23:27.253Z,100.00
2018-08-16T02:26:31.818Z,100.00
2018-08-16T02:29:36.242Z,100.00
2018-08-16T02:32:40.688Z,100.00
2018-08-16T02:35:45.190Z,100.00
2018-08-16T02:38:50.039Z,100.00
2018-08-16T02:41:54.462Z,100.00
2018-08-16T02:44:58.894Z,100.00
2018-08-16T02:48:03.365Z,100.00
2018-08-16T02:51:07.838Z,100.00
2018-08-16T02:54:12.369Z,100.00
2018-08-16T02:57:16.772Z,100.00
2018-08-16T03:00:21.309Z,100.00
2018-08-16T03:03:27.422Z,100.00
2018-08-16T03:06:31.983Z,100.00
2018-08-16T03:09:36.425Z,100.00
2018-08-16T03:12:40.854Z,100.00
2018-08-16T03:15:45.514Z,100.00
2018-08-16T03:18:51.031Z,100.00
2018-08-16T03:21:55.509Z,100.00
2018-08-16T03:24:59.942Z,100.00
2018-08-16T03:28:04.392Z,100.00
2018-08-16T03:31:09.080Z,100.00
2018-08-16T03:34:13.493Z,100.00
2018-08-16T03:37:19.588Z,100.00
2018-08-16T03:40:24.410Z,100.00
2018-08-16T03:43:28.866Z,100.00
2018-08-16T03:46:33.356Z,100.00
2018-08-16T03:49:37.811Z,100.00
2018-08-16T03:52:42.709Z,100.00
2018-08-16T03:55:47.205Z,100.00
2018-08-16T03:58:51.649Z,100.00
2018-08-16T04:01:56.294Z,100.00
2018-08-16T04:05:00.701Z,100.00
2018-08-16T04:08:05.166Z,100.00
2018-08-16T04:11:09.773Z,100.00
2018-08-16T04:14:14.398Z,100.00
2018-08-16T04:17:18.760Z,100.00
2018-08-16T04:20:25.262Z,100.00
2018-08-16T04:23:29.754Z,100.00
2018-08-16T04:26:34.168Z,100.00
2018-08-16T04:29:38.691Z,100.00
2018-08-16T04:32:43.095Z,100.00
2018-08-16T04:35:47.775Z,100.00
2018-08-16T04:38:52.246Z,100.00
2018-08-16T04:41:56.954Z,100.00
2018-08-16T04:45:01.605Z,100.00
2018-08-16T04:48:06.646Z,100.00
2018-08-16T04:51:11.962Z,100.00
2018-08-16T04:54:16.742Z,100.00
2018-08-16T04:57:21.133Z,100.00
2018-08-16T05:00:26.389Z,100.00
2018-08-16T05:03:33.487Z,100.00
2018-08-16T05:06:38.230Z,99.51
2018-08-16T05:09:42.657Z,98.94
2018-08-16T05:12:47.150Z,98.81
2018-08-16T05:16:08.914Z,98.25
2018-08-16T05:19:15.517Z,98.09
2018-08-16T05:22:20.081Z,97.23
2018-08-16T05:25:24.487Z,96.40
2018-08-16T05:28:28.926Z,96.27
2018-08-16T05:31:33.464Z,95.69
2018-08-16T05:34:38.936Z,94.66
2018-08-16T05:37:43.431Z,94.09
2018-08-16T05:40:47.834Z,93.43
2018-08-16T05:43:52.221Z,91.85
2018-08-16T05:46:56.778Z,91.63
2018-08-16T05:50:01.288Z,92.20
2018-08-16T05:53:05.798Z,90.95
2018-08-16T05:56:10.415Z,87.27
2018-08-16T05:59:14.960Z,81.11
2018-08-16T06:02:46.509Z,73.82
2018-08-16T06:05:51.252Z,64.50
2018-08-16T06:08:55.783Z,60.45
2018-08-16T06:12:00.638Z,56.40
2018-08-16T06:15:06.197Z,53.95
2018-08-16T06:18:11.228Z,51.90
2018-08-16T06:21:15.755Z,50.50
2018-08-16T06:24:20.321Z,48.34
2018-08-16T06:27:24.872Z,47.53
2018-08-16T06:30:29.260Z,46.76
2018-08-16T06:33:34.540Z,45.95
2018-08-16T06:36:38.970Z,46.24
2018-08-16T06:39:43.452Z,45.46
2018-08-16T06:42:48.965Z,43.76
2018-08-16T06:45:54.878Z,41.92
2018-08-16T06:48:59.458Z,43.17
2018-08-16T06:52:04.078Z,42.72
2018-08-16T06:55:10.271Z,44.50
2018-08-16T06:58:14.723Z,43.97
2018-08-16T07:01:19.146Z,43.54
2018-08-16T07:04:23.802Z,40.53
2018-08-16T07:07:28.394Z,41.14
2018-08-16T07:10:32.874Z,40.99
2018-08-16T07:13:37.370Z,45.58
2018-08-16T07:16:41.921Z,47.18
2018-08-16T07:19:46.406Z,47.91
2018-08-16T07:22:51.148Z,47.65
2018-08-16T07:25:56.007Z,47.64
2018-08-16T07:29:00.565Z,46.45
2018-08-16T07:32:05.165Z,41.24
2018-08-16T07:35:10.901Z,41.40
2018-08-16T07:38:15.798Z,41.45
2018-08-16T07:41:20.170Z,42.51
2018-08-16T07:44:24.841Z,43.05
2018-08-16T07:47:29.546Z,42.83
2018-08-16T07:50:34.244Z,40.98
2018-08-16T07:53:38.770Z,40.04
2018-08-16T07:56:43.458Z,41.93
2018-08-16T07:59:47.989Z,41.02
2018-08-16T08:02:52.759Z,40.38
2018-08-16T08:05:57.562Z,42.87
2018-08-16T08:09:02.074Z,44.12
2018-08-16T08:12:06.554Z,46.67
2018-08-16T08:15:13.569Z,47.17
2018-08-16T08:18:18.013Z,47.03
2018-08-16T08:21:22.701Z,46.34
2018-08-16T08:24:27.450Z,44.80
2018-08-16T08:27:31.810Z,42.92
2018-08-16T08:30:36.270Z,43.90
2018-08-16T08:33:40.865Z,44.90
2018-08-16T08:37:02.292Z,42.92
2018-08-16T08:40:07.334Z,46.07
2018-08-16T08:43:23.316Z,45.17
2018-08-16T08:46:27.723Z,44.27
2018-08-16T08:49:32.231Z,44.86
2018-08-16T08:52:36.630Z,44.32
2018-08-16T08:56:58.336Z,44.41
2018-08-16T09:00:02.741Z,44.63
2018-08-16T09:03:07.652Z,45.30
2018-08-16T09:06:12.209Z,44.36
2018-08-16T09:10:41.055Z,43.33
2018-08-16T09:14:04.877Z,44.12
2018-08-16T09:17:09.257Z,43.88
2018-08-16T09:20:13.993Z,42.77
2018-08-16T09:23:18.624Z,46.25
2018-08-16T09:26:28.679Z,45.58
2018-08-16T09:30:47.556Z,43.78
2018-08-16T09:34:18.734Z,45.98
2018-08-16T09:37:28.451Z,47.07
2018-08-16T09:40:33.001Z,47.17
2018-08-16T09:43:37.439Z,48.29
2018-08-16T09:47:07.133Z,43.56
2018-08-16T09:50:12.609Z,46.33
2018-08-16T09:53:17.271Z,44.80
2018-08-16T09:56:21.807Z,46.66
2018-08-16T09:59:26.209Z,45.54
2018-08-16T10:02:30.690Z,45.87
2018-08-16T10:05:35.374Z,46.94
2018-08-16T10:08:40.037Z,45.42
2018-08-16T10:11:44.982Z,45.17
2018-08-16T10:14:51.077Z,44.43
2018-08-16T10:17:55.577Z,43.41
2018-08-16T10:21:00.237Z,45.61
2018-08-16T10:24:05.029Z,44.68
2018-08-16T10:27:09.777Z,43.40
2018-08-16T10:30:29.037Z,44.17
2018-08-16T10:33:34.498Z,44.47
2018-08-16T10:36:38.965Z,41.96
2018-08-16T10:39:43.535Z,41.92
2018-08-16T10:42:48.297Z,40.86
2018-08-16T10:45:52.860Z,43.42
2018-08-16T10:48:58.316Z,44.49
2018-08-16T10:52:03.445Z,43.26
2018-08-16T10:55:07.865Z,42.66
2018-08-16T10:58:12.504Z,42.28
2018-08-16T11:01:16.984Z,44.24
2018-08-16T11:04:21.422Z,41.53
2018-08-16T11:07:25.921Z,42.35
2018-08-16T11:10:30.647Z,43.03
2018-08-16T11:13:35.121Z,44.52
2018-08-16T11:16:40.214Z,46.39
2018-08-16T11:19:44.718Z,43.58
2018-08-16T11:22:49.326Z,45.73
2018-08-16T11:25:54.298Z,42.14
2018-08-16T11:28:59.144Z,43.98
2018-08-16T11:32:03.687Z,42.40
2018-08-16T11:35:08.349Z,41.73
2018-08-16T11:38:12.946Z,43.00
2018-08-16T11:41:17.398Z,43.09
2018-08-16T11:44:21.930Z,42.46
2018-08-16T11:47:26.338Z,43.00
2018-08-16T11:50:30.837Z,42.92
2018-08-16T11:53:41.870Z,42.70
2018-08-16T11:56:46.694Z,41.33
2018-08-16T11:59:51.129Z,39.99
2018-08-16T12:02:55.543Z,41.83
2018-08-16T12:06:00.257Z,42.35
2018-08-16T12:09:07.201Z,40.08
2018-08-16T12:12:11.672Z,38.55
2018-08-16T12:15:16.496Z,40.14
2018-08-16T12:18:20.910Z,42.48
2018-08-16T12:21:25.591Z,40.56
2018-08-16T12:24:30.383Z,40.07
2018-08-16T12:27:35.223Z,40.51
2018-08-16T12:30:39.697Z,39.27
2018-08-16T12:33:44.400Z,40.36
2018-08-16T12:36:48.798Z,39.81
2018-08-16T12:39:53.430Z,38.96
2018-08-16T12:42:59.040Z,40.24
2018-08-16T12:46:03.662Z,41.30
2018-08-16T12:49:08.326Z,41.99
2018-08-16T12:52:14.147Z,38.90
2018-08-16T12:55:18.800Z,38.43
2018-08-16T12:58:23.362Z,39.03
2018-08-16T13:01:27.744Z,39.41
2018-08-16T13:04:33.237Z,39.91
2018-08-16T13:07:37.670Z,38.60
2018-08-16T13:10:42.105Z,36.50
2018-08-16T13:13:46.757Z,37.15
2018-08-16T13:16:52.116Z,37.38
2018-08-16T13:19:56.881Z,36.86
2018-08-16T13:23:01.378Z,36.15
2018-08-16T13:26:05.920Z,36.34
2018-08-16T13:29:10.480Z,35.79
2018-08-16T13:32:14.945Z,37.18
2018-08-16T13:35:19.384Z,37.57
2018-08-16T13:38:27.123Z,37.97
2018-08-16T13:42:01.359Z,37.80
2018-08-16T13:45:07.046Z,37.83
2018-08-16T13:48:12.017Z,37.82
2018-08-16T13:51:16.511Z,38.43
2018-08-16T13:54:20.965Z,39.13
2018-08-16T13:57:26.013Z,39.95
2018-08-16T14:00:30.451Z,38.27
2018-08-16T14:03:35.478Z,38.15
2018-08-16T14:06:40.038Z,39.08
2018-08-16T14:09:44.582Z,35.41
2018-08-16T14:12:49.285Z,37.42
2018-08-16T14:15:54.013Z,38.42
2018-08-16T14:18:58.444Z,39.90
2018-08-16T14:22:03.259Z,38.42
2018-08-16T14:25:08.469Z,39.08
2018-08-16T14:28:12.860Z,38.39
2018-08-16T14:31:17.370Z,38.04
2018-08-16T14:34:23.392Z,37.20
2018-08-16T14:37:28.150Z,38.48
2018-08-16T14:40:32.716Z,38.32
2018-08-16T14:43:37.405Z,38.22
2018-08-16T14:46:41.881Z,38.32
2018-08-16T14:49:46.247Z,39.15
2018-08-16T14:52:51.057Z,37.82
2018-08-16T14:55:55.425Z,37.39
2018-08-16T14:59:00.297Z,38.21
2018-08-16T15:02:04.991Z,37.80
2018-08-16T15:05:09.685Z,37.24
2018-08-16T15:08:14.263Z,37.06
2018-08-16T15:11:19.126Z,38.29
2018-08-16T15:14:23.584Z,37.52
2018-08-16T15:17:28.930Z,37.43
2018-08-16T15:20:33.486Z,37.25
2018-08-16T15:23:38.306Z,36.75
2018-08-16T15:26:42.723Z,37.62
2018-08-16T15:29:47.165Z,36.79
2018-08-16T15:32:52.886Z,36.67
2018-08-16T15:35:57.649Z,36.96
2018-08-16T15:39:05.103Z,37.49
2018-08-16T15:42:10.367Z,38.69
2018-08-16T15:45:15.519Z,38.30
2018-08-16T15:48:19.972Z,37.41
2018-08-16T15:51:26.378Z,37.12
2018-08-16T15:54:32.526Z,38.69
2018-08-16T15:57:37.646Z,37.60
2018-08-16T16:00:42.443Z,37.87
2018-08-16T16:03:47.357Z,39.75
2018-08-16T16:06:52.060Z,39.66
2018-08-16T16:09:56.664Z,37.59
2018-08-16T16:13:02.268Z,36.93
2018-08-16T16:16:07.109Z,37.58
2018-08-16T16:19:11.646Z,37.29
2018-08-16T16:22:16.298Z,37.72
2018-08-16T16:25:21.058Z,37.97
2018-08-16T16:28:25.838Z,38.33
2018-08-16T16:31:30.623Z,37.21
2018-08-16T16:34:35.231Z,37.97
2018-08-16T16:37:40.235Z,38.93
2018-08-16T16:40:45.356Z,38.58
2018-08-16T16:43:49.872Z,39.30
2018-08-16T16:46:54.721Z,41.17
2018-08-16T16:49:59.490Z,38.98
2018-08-16T16:53:04.245Z,40.36
2018-08-16T16:56:08.673Z,39.73
2018-08-16T16:59:13.504Z,39.27
2018-08-16T17:02:18.060Z,35.69
2018-08-16T17:05:22.725Z,32.26
2018-08-16T17:08:27.629Z,30.60
2018-08-16T17:11:32.306Z,32.78
2018-08-16T17:14:36.880Z,35.51
2018-08-16T17:17:42.336Z,36.73
2018-08-16T17:20:46.862Z,38.49
2018-08-16T17:23:51.326Z,39.87
2018-08-16T17:26:55.942Z,41.02
2018-08-16T17:30:00.358Z,41.19
2018-08-16T17:33:05.049Z,42.63
2018-08-16T17:36:09.861Z,42.86
2018-08-16T17:39:14.329Z,43.53
2018-08-16T17:42:18.957Z,43.77
2018-08-16T17:45:23.490Z,45.08
2018-08-16T17:48:28.338Z,46.65
2018-08-16T17:51:32.800Z,47.11
2018-08-16T17:54:37.483Z,47.42
2018-08-16T17:57:42.086Z,49.24
2018-08-16T18:00:47.002Z,49.73
2018-08-16T18:03:51.431Z,50.80
2018-08-16T18:06:56.975Z,51.21
2018-08-16T18:10:01.661Z,52.04
2018-08-16T18:13:06.327Z,52.81
2018-08-16T18:16:10.902Z,53.15
2018-08-16T18:19:15.429Z,54.11
2018-08-16T18:22:19.977Z,54.79
2018-08-16T18:25:24.519Z,56.88
2018-08-16T18:28:29.031Z,57.90
2018-08-16T18:31:33.805Z,58.62
2018-08-16T18:34:38.441Z,59.67
2018-08-16T18:37:43.136Z,60.09
2018-08-16T18:40:47.574Z,61.06
2018-08-16T18:43:52.117Z,62.03
2018-08-16T18:46:56.651Z,62.88
2018-08-16T18:50:01.317Z,63.92
2018-08-16T18:53:05.935Z,69.49
2018-08-16T18:56:10.414Z,69.57
2018-08-16T18:59:17.236Z,69.68
2018-08-16T19:02:21.991Z,69.94
2018-08-16T19:05:26.564Z,69.82
2018-08-16T19:08:31.202Z,69.81
2018-08-16T19:11:35.862Z,70.05
2018-08-16T19:14:40.260Z,71.19
2018-08-16T19:17:45.081Z,71.48
2018-08-16T19:20:49.593Z,72.24
2018-08-16T19:23:54.422Z,73.24
2018-08-16T19:26:58.975Z,72.59
2018-08-16T19:30:04.290Z,74.00
2018-08-16T19:33:10.422Z,73.72
2018-08-16T19:36:15.562Z,75.29
2018-08-16T19:39:20.449Z,75.86
2018-08-16T19:42:26.263Z,76.66
2018-08-16T19:45:30.873Z,76.70
2018-08-16T19:48:36.096Z,75.96
2018-08-16T19:51:41.280Z,76.37
2018-08-16T19:54:46.235Z,76.59
2018-08-16T19:57:51.329Z,77.33
2018-08-16T20:00:56.574Z,78.11
2018-08-16T20:04:00.974Z,78.71
2018-08-16T20:07:06.203Z,79.30
2018-08-16T20:10:10.970Z,80.19
2018-08-16T20:13:17.198Z,80.66
2018-08-16T20:16:22.335Z,80.72
2018-08-16T20:19:26.910Z,80.13
2018-08-16T20:22:31.618Z,80.51
2018-08-16T20:25:36.742Z,80.67
2018-08-16T20:28:41.150Z,80.92
2018-08-16T20:31:45.578Z,81.48
2018-08-16T20:34:49.978Z,81.79
2018-08-16T20:37:54.400Z,82.02
2018-08-16T20:40:59.080Z,82.82
2018-08-16T20:44:03.506Z,83.17
2018-08-16T20:47:08.068Z,83.83
2018-08-16T20:50:12.647Z,83.88
2018-08-16T20:53:17.109Z,84.07
2018-08-16T20:56:21.592Z,84.34
2018-08-16T20:59:26.057Z,84.95
2018-08-16T21:02:30.592Z,84.37
2018-08-16T21:05:35.125Z,84.90
2018-08-16T21:08:39.751Z,85.04
2018-08-16T21:11:45.195Z,84.48
2018-08-16T21:14:49.646Z,84.82
2018-08-16T21:17:54.797Z,85.32
2018-08-16T21:20:59.526Z,85.32
2018-08-16T21:24:04.519Z,85.87
2018-08-16T21:27:09.054Z,86.39
2018-08-16T21:30:13.526Z,85.97
2018-08-16T21:33:18.323Z,86.28
2018-08-16T21:36:22.894Z,86.05
2018-08-16T21:39:27.409Z,86.36
2018-08-16T21:42:31.828Z,86.45
2018-08-16T21:45:36.604Z,87.00
2018-08-16T21:48:41.043Z,87.03
2018-08-16T21:51:46.576Z,86.86
2018-08-16T21:54:50.983Z,86.92
2018-08-16T21:57:55.427Z,87.13
2018-08-16T22:01:05.931Z,87.96
2018-08-16T22:04:10.517Z,88.32
2018-08-16T22:08:32.194Z,88.44
2018-08-16T22:11:36.576Z,88.39
2018-08-16T22:14:41.863Z,87.39
2018-08-16T22:17:46.343Z,87.35
2018-08-16T22:20:51.085Z,87.68
2018-08-16T22:23:56.524Z,88.07
2018-08-16T22:27:00.890Z,88.87
2018-08-16T22:30:07.138Z,89.23
2018-08-16T22:33:11.524Z,88.69
2018-08-16T22:36:16.850Z,88.51
2018-08-16T22:39:21.267Z,89.11
2018-08-16T22:42:25.633Z,89.20
2018-08-16T22:45:30.062Z,89.28
2018-08-16T22:48:35.200Z,89.59
2018-08-16T22:51:39.706Z,90.47
2018-08-16T22:54:44.215Z,90.65
2018-08-16T22:57:48.654Z,90.90
2018-08-16T23:00:53.124Z,90.66
2018-08-16T23:03:57.661Z,90.79
2018-08-16T23:07:02.062Z,91.47
2018-08-16T23:10:06.889Z,91.63
2018-08-16T23:13:11.343Z,91.44
2018-08-16T23:16:15.752Z,91.96
2018-08-16T23:19:20.518Z,92.21
2018-08-16T23:22:25.185Z,91.84
2018-08-16T23:25:29.780Z,91.68
2018-08-16T23:28:34.232Z,92.02
2018-08-16T23:31:38.631Z,92.70
2018-08-16T23:34:44.257Z,92.87
2018-08-16T23:37:49.191Z,93.13
2018-08-16T23:40:53.598Z,93.30
2018-08-16T23:43:59.742Z,93.77
2018-08-16T23:47:04.145Z,93.94
2018-08-16T23:50:11.269Z,93.87
2018-08-16T23:53:15.985Z,93.94
2018-08-16T23:56:21.758Z,94.64
2018-08-16T23:59:26.141Z,94.70
